Hansen, Nebraska
Current Conditions -  °F | °C
As of 12:21 AM on Thursday 23 Oct 2014 (Local Time) from KHSI Reporting Station
Moderate Fog Moderate Fog  
Wind Chill: 12°   Ceiling: 1600
Heat Index: 12°   Visibility: 0.25mi
Dew Point: 11°   Wind: 0mph
Humidity: 93%   Direction: NA
Pressure: 30.05"   Gusts: NA
Location:  40.5551°N, 98.369°W
Report Text: KHSI 230521Z AUTO 00000KT 1/4SM FG FEW004 OVC016 12/11 A3005 RMK AO2 T01220111
Loading
Personal Weather Stations






























Interactive Weather Map
Tropical Storm Tracking
New forecast layout! Learn more

10-Day Weather Forecast

Advertisements
Track Severe Weather on mobile